CDT,Max TemperatureF,Mean TemperatureF,Min TemperatureF,Max Dew PointF,MeanDew PointF,Min DewpointF,Max Humidity, Mean Humidity, Min Humidity, Max Sea Level PressureIn, Mean Sea Level PressureIn, Min Sea Level PressureIn, Max VisibilityMiles, Mean VisibilityMiles, Min VisibilityMiles, Max Wind SpeedMPH, Mean Wind SpeedMPH, Max Gust SpeedMPH,PrecipitationIn, CloudCover, Events, WindDirDegrees
2013-5-1,90,74,59,58,51,39,80,50,18,30.19,30.06,29.94,10,10,10,17,12,25,0.00,1,,173
2013-5-2,61,51,41,48,42,38,89,71,52,30.27,30.22,30.16,10,10,5,21,13,28,0.04,5,Rain-Thunderstorm,355
2013-5-3,51,44,38,50,42,36,93,92,87,30.20,30.05,29.96,10,8,3,17,13,22,0.44,8,Rain-Thunderstorm,19
2013-5-4,71,60,50,59,53,48,94,80,50,30.07,30.00,29.95,10,9,5,18,9,22,0.00,4,Rain,53
2013-5-5,74,58,43,53,48,42,95,68,33,30.07,30.04,30.00,10,7,0,15,4,21,0.00,2,Fog,41
2013-5-6,74,59,44,50,44,35,93,57,24,30.09,30.05,30.01,10,10,10,12,4,16,0.00,1,,3
2013-5-7,79,66,54,51,42,32,84,47,19,30.09,30.04,30.01,10,10,10,7,1,,0.10,1,,350
2013-5-8,79,64,50,53,47,38,86,54,23,30.06,30.02,29.99,10,10,2,7,2,,0.00,1,,118
2013-5-9,73,62,51,62,58,50,94,84,67,29.99,29.91,29.84,10,8,2,18,6,23,0.57,7,Rain,102
2013-5-10,54,48,44,50,46,43,94,89,84,30.01,29.95,29.84,10,9,2,15,11,21,0.33,7,Rain,355
2013-5-11,59,50,41,52,37,21,94,65,31,30.11,29.98,29.87,10,8,3,26,11,38,0.01,3,Rain,259
2013-5-12,56,44,34,31,27,21,76,49,27,30.16,30.13,30.10,10,10,10,18,10,25,0.00,0,,277
2013-5-13,66,50,33,42,30,22,87,48,19,30.19,30.11,29.95,10,10,10,14,5,16,0.00,1,Rain,222
2013-5-14,92,74,56,62,48,37,69,45,15,29.94,29.76,29.63,10,10,10,18,13,25,0.00,0,,198
2013-5-15,81,70,61,58,48,38,57,42,22,29.90,29.82,29.66,10,10,10,16,10,23,0.00,0,Thunderstorm,278
2013-5-16,82,68,54,52,45,37,83,47,20,29.97,29.93,29.89,10,10,7,13,3,,0.00,0,,106
2013-5-17,75,67,59,63,51,41,74,59,47,30.05,30.01,29.96,10,10,10,16,9,23,0.00,4,,62
2013-5-18,81,68,54,67,58,49,85,71,53,30.06,30.01,29.94,10,10,7,14,7,17,0.00,2,,110
2013-5-19,87,74,61,68,62,55,92,69,44,29.98,29.86,29.70,10,8,4,29,11,47,0.03,1,Rain-Thunderstorm,124
2013-5-20,82,72,62,69,62,57,94,70,43,29.79,29.74,29.61,10,10,5,43,14,59,0.05,2,Rain-Thunderstorm,169
2013-5-21,79,70,61,66,59,55,90,71,45,29.72,29.69,29.66,10,10,10,22,13,30,0.00,4,,194
2013-5-22,74,66,57,63,57,52,92,78,46,29.79,29.70,29.65,10,10,7,16,5,22,0.01,5,Rain,222
2013-5-23,64,54,43,58,49,38,93,76,50,30.31,30.06,29.79,10,9,3,18,10,25,0.08,5,Rain,359
2013-5-24,65,52,38,42,35,26,91,56,23,30.48,30.38,30.31,10,10,10,13,4,,0.00,0,,69
2013-5-25,59,52,44,45,41,36,84,67,44,30.41,30.35,30.30,10,10,10,17,7,18,0.03,6,Rain,101
2013-5-26,60,50,41,56,47,38,93,80,53,30.30,30.23,30.13,10,8,3,17,7,20,0.24,5,Rain-Thunderstorm,87
2013-5-27,62,58,54,59,56,52,95,93,91,30.13,29.98,29.87,7,2,0,18,11,18,0.02,8,Fog-Rain,70
2013-5-28,79,67,55,75,65,54,96,91,82,29.87,29.78,29.72,10,6,0,20,8,25,0.59,6,Fog-Rain-Thunderstorm,158
2013-5-29,84,74,64,73,66,59,92,80,63,29.95,29.88,29.76,10,10,7,18,8,23,0.01,2,Rain-Thunderstorm,160
2013-5-30,84,74,64,72,67,61,93,79,61,29.91,29.83,29.73,10,10,5,32,17,40,0.33,3,Rain-Thunderstorm,155
2013-5-31,76,70,64,69,65,62,94,87,68,29.83,29.79,29.70,10,10,7,32,15,43,0.03,4,Rain,165